createdAt,value
2019-02-11T00:02:11.027Z,91.77
2019-02-11T00:04:36.868Z,91.99
2019-02-11T00:07:05.461Z,91.94
2019-02-11T00:09:31.311Z,92.25
2019-02-11T00:11:57.157Z,92.49
2019-02-11T00:14:22.983Z,92.34
2019-02-11T00:16:48.821Z,92.16
2019-02-11T00:19:14.674Z,92.32
2019-02-11T00:21:40.595Z,92.25
2019-02-11T00:24:06.408Z,92.29
2019-02-11T00:26:32.269Z,92.01
2019-02-11T00:28:58.079Z,91.64
2019-02-11T00:31:24.023Z,91.92
2019-02-11T00:33:50.147Z,92.00
2019-02-11T00:36:17.932Z,91.58
2019-02-11T00:38:43.782Z,91.48
2019-02-11T00:41:09.621Z,91.89
2019-02-11T00:43:35.464Z,92.03
2019-02-11T00:46:01.302Z,91.84
2019-02-11T00:48:27.119Z,91.86
2019-02-11T00:50:52.976Z,91.59
2019-02-11T00:53:18.791Z,91.54
2019-02-11T00:55:44.649Z,91.87
2019-02-11T00:58:10.504Z,91.77
2019-02-11T01:00:36.332Z,91.68
2019-02-11T01:03:02.178Z,91.51
2019-02-11T01:05:28.013Z,91.31
2019-02-11T01:07:53.853Z,91.52
2019-02-11T01:10:19.776Z,91.74
2019-02-11T01:12:45.616Z,91.45
2019-02-11T01:15:11.561Z,91.12
2019-02-11T01:17:37.416Z,91.06
2019-02-11T01:20:06.440Z,91.33
2019-02-11T01:22:32.392Z,91.60
2019-02-11T01:24:58.219Z,91.68
2019-02-11T01:27:24.061Z,91.40
2019-02-11T01:29:49.885Z,91.67
2019-02-11T01:32:15.732Z,91.45
2019-02-11T01:34:41.553Z,91.49
2019-02-11T01:37:07.499Z,91.58
2019-02-11T01:39:33.322Z,91.38
2019-02-11T01:41:59.132Z,91.50
2019-02-11T01:44:24.987Z,91.61
2019-02-11T01:46:50.913Z,91.56
2019-02-11T01:49:16.751Z,91.76
2019-02-11T01:51:42.564Z,91.53
2019-02-11T01:54:08.407Z,91.68
2019-02-11T01:56:34.241Z,91.71
2019-02-11T01:59:00.110Z,91.72
2019-02-11T02:01:25.929Z,91.76
2019-02-11T02:03:51.775Z,91.48
2019-02-11T02:06:17.593Z,91.70
2019-02-11T02:08:43.443Z,91.56
2019-02-11T02:11:09.265Z,91.62
2019-02-11T02:13:35.104Z,91.26
2019-02-11T02:16:00.951Z,91.61
2019-02-11T02:18:26.745Z,91.28
2019-02-11T02:20:52.588Z,91.32
2019-02-11T02:23:18.400Z,91.48
2019-02-11T02:25:44.244Z,91.10
2019-02-11T02:28:10.075Z,91.01
2019-02-11T02:30:35.928Z,91.08
2019-02-11T02:33:01.731Z,90.80
2019-02-11T02:35:27.579Z,90.87
2019-02-11T02:37:53.409Z,91.22
2019-02-11T02:40:19.246Z,91.05
2019-02-11T02:42:45.063Z,91.23
2019-02-11T02:45:11.032Z,90.77
2019-02-11T02:47:36.882Z,91.12
2019-02-11T02:50:05.429Z,91.33
2019-02-11T02:52:31.269Z,91.29
2019-02-11T02:54:57.045Z,91.40
2019-02-11T02:57:22.878Z,90.87
2019-02-11T02:59:48.738Z,90.90
2019-02-11T03:02:15.198Z,90.85
2019-02-11T03:04:41.013Z,90.91
2019-02-11T03:07:06.845Z,91.33
2019-02-11T03:09:32.649Z,91.28
2019-02-11T03:11:58.489Z,91.39
2019-02-11T03:14:24.298Z,90.83
2019-02-11T03:16:50.139Z,90.67
2019-02-11T03:19:15.953Z,90.93
2019-02-11T03:21:41.803Z,90.76
2019-02-11T03:24:07.612Z,90.79
2019-02-11T03:26:33.464Z,90.61
2019-02-11T03:28:59.276Z,89.47
2019-02-11T03:31:25.116Z,89.37
2019-02-11T03:33:50.940Z,89.72
2019-02-11T03:36:16.758Z,89.80
2019-02-11T03:38:42.600Z,89.21
2019-02-11T03:41:08.445Z,89.20
2019-02-11T03:43:34.286Z,88.60
2019-02-11T03:46:00.118Z,88.97
2019-02-11T03:48:25.952Z,89.04
2019-02-11T03:50:51.879Z,88.85
2019-02-11T03:53:17.828Z,89.04
2019-02-11T03:55:43.753Z,88.48
2019-02-11T03:58:09.725Z,88.12
2019-02-11T04:00:36.156Z,88.29
2019-02-11T04:03:01.992Z,88.44
2019-02-11T04:05:27.900Z,88.64
2019-02-11T04:07:53.751Z,88.59
2019-02-11T04:10:19.559Z,89.11
2019-02-11T04:12:45.377Z,89.43
2019-02-11T04:15:11.319Z,89.46
2019-02-11T04:17:37.132Z,89.91
2019-02-11T04:20:05.169Z,89.93
2019-02-11T04:22:30.982Z,89.53
2019-02-11T04:24:56.827Z,89.22
2019-02-11T04:27:22.752Z,89.15
2019-02-11T04:29:48.589Z,89.31
2019-02-11T04:32:14.400Z,89.06
2019-02-11T04:34:40.255Z,89.33
2019-02-11T04:37:06.071Z,89.41
2019-02-11T04:39:31.905Z,88.93
2019-02-11T04:41:57.742Z,88.60
2019-02-11T04:44:23.592Z,88.94
2019-02-11T04:46:49.398Z,88.80
2019-02-11T04:49:15.251Z,88.28
2019-02-11T04:51:41.065Z,88.39
2019-02-11T04:54:06.886Z,88.62
2019-02-11T04:56:32.711Z,88.52
2019-02-11T04:58:58.591Z,88.64
2019-02-11T05:01:24.641Z,88.51
2019-02-11T05:03:50.464Z,87.98
2019-02-11T05:06:16.308Z,87.55
2019-02-11T05:08:42.119Z,87.92
2019-02-11T05:11:07.968Z,87.62
2019-02-11T05:13:33.787Z,87.50
2019-02-11T05:15:59.735Z,87.98
2019-02-11T05:18:25.547Z,87.50
2019-02-11T05:20:51.396Z,86.69
2019-02-11T05:23:17.209Z,87.48
2019-02-11T05:25:43.044Z,87.67
2019-02-11T05:28:08.859Z,87.85
2019-02-11T05:30:34.680Z,88.09
2019-02-11T05:33:00.667Z,87.89
2019-02-11T05:35:26.464Z,87.98
2019-02-11T05:37:52.312Z,88.50
2019-02-11T05:40:18.144Z,88.72
2019-02-11T05:42:43.992Z,88.38
2019-02-11T05:45:09.930Z,88.81
2019-02-11T05:47:35.777Z,88.59
2019-02-11T05:50:02.899Z,88.36
2019-02-11T05:52:28.816Z,88.05
2019-02-11T05:54:54.638Z,87.64
2019-02-11T05:57:20.499Z,87.18
2019-02-11T05:59:46.363Z,86.63
2019-02-11T06:02:13.831Z,87.36
2019-02-11T06:04:39.664Z,86.84
2019-02-11T06:07:05.481Z,86.87
2019-02-11T06:09:31.333Z,86.76
2019-02-11T06:11:57.140Z,86.85
2019-02-11T06:14:22.983Z,86.39
2019-02-11T06:16:48.798Z,86.71
2019-02-11T06:19:14.647Z,86.17
2019-02-11T06:21:40.475Z,86.38
2019-02-11T06:24:06.428Z,85.75
2019-02-11T06:26:32.245Z,86.06
2019-02-11T06:28:58.136Z,86.18
2019-02-11T06:31:23.939Z,85.95
2019-02-11T06:33:49.831Z,86.24
2019-02-11T06:36:15.658Z,85.82
2019-02-11T06:38:41.503Z,86.41
2019-02-11T06:41:07.319Z,86.32
2019-02-11T06:43:33.164Z,85.87
2019-02-11T06:45:59.093Z,85.19
2019-02-11T06:48:24.990Z,85.25
2019-02-11T06:50:50.800Z,85.36
2019-02-11T06:53:16.618Z,85.93
2019-02-11T06:55:42.455Z,85.75
2019-02-11T06:58:08.318Z,86.12
2019-02-11T07:00:34.190Z,85.79
2019-02-11T07:03:00.000Z,86.41
2019-02-11T07:05:25.844Z,86.17
2019-02-11T07:07:51.660Z,86.13
2019-02-11T07:10:17.537Z,85.92
2019-02-11T07:12:43.342Z,85.70
2019-02-11T07:15:11.318Z,85.58
2019-02-11T07:17:37.103Z,85.62
2019-02-11T07:20:06.546Z,85.30
2019-02-11T07:22:32.363Z,85.55
2019-02-11T07:24:58.210Z,85.86
2019-02-11T07:27:24.024Z,85.56
2019-02-11T07:29:50.337Z,85.30
2019-02-11T07:32:16.167Z,84.80
2019-02-11T07:34:42.037Z,84.30
2019-02-11T07:37:07.878Z,84.65
2019-02-11T07:39:33.693Z,84.30
2019-02-11T07:42:07.236Z,84.37
2019-02-11T07:44:33.065Z,83.87
2019-02-11T07:46:58.929Z,83.89
2019-02-11T07:49:24.758Z,84.06
2019-02-11T07:51:50.614Z,84.26
2019-02-11T07:54:16.455Z,83.78
2019-02-11T07:56:42.303Z,83.61
2019-02-11T07:59:08.172Z,83.48
2019-02-11T08:01:34.048Z,83.16
2019-02-11T08:03:59.998Z,83.13
2019-02-11T08:06:25.873Z,83.46
2019-02-11T08:08:51.936Z,83.56
2019-02-11T08:11:18.101Z,85.03
2019-02-11T08:13:43.929Z,85.03
2019-02-11T08:16:09.792Z,85.52
2019-02-11T08:18:35.630Z,85.28
2019-02-11T08:21:01.945Z,84.50
2019-02-11T08:23:27.887Z,83.55
2019-02-11T08:25:53.724Z,81.49
2019-02-11T08:28:19.910Z,79.33
2019-02-11T08:30:46.047Z,80.44
2019-02-11T08:33:12.009Z,80.49
2019-02-11T08:35:37.846Z,80.15
2019-02-11T08:38:03.684Z,79.85
2019-02-11T08:40:29.509Z,80.64
2019-02-11T08:42:55.376Z,80.71
2019-02-11T08:45:21.199Z,80.56
2019-02-11T08:47:47.056Z,80.59
2019-02-11T08:50:13.243Z,80.63
2019-02-11T08:52:39.096Z,80.87
2019-02-11T08:55:06.709Z,80.68
2019-02-11T08:57:32.552Z,80.01
2019-02-11T08:59:58.450Z,80.01
2019-02-11T09:02:24.604Z,79.70
2019-02-11T09:04:50.423Z,79.65
2019-02-11T09:07:16.242Z,79.80
2019-02-11T09:09:42.128Z,79.40
2019-02-11T09:12:07.953Z,78.28
2019-02-11T09:14:33.814Z,77.25
2019-02-11T09:16:59.643Z,75.85
2019-02-11T09:19:25.475Z,76.31
2019-02-11T09:21:51.311Z,74.75
2019-02-11T09:24:17.205Z,74.27
2019-02-11T09:26:43.214Z,75.54
2019-02-11T09:29:09.057Z,75.54
2019-02-11T09:31:34.910Z,77.12
2019-02-11T09:34:00.829Z,77.47
2019-02-11T09:36:26.677Z,77.08
2019-02-11T09:38:52.513Z,76.75
2019-02-11T09:41:18.468Z,75.30
2019-02-11T09:43:44.404Z,74.61
2019-02-11T09:46:10.264Z,74.79
2019-02-11T09:48:36.119Z,74.10
2019-02-11T09:51:03.174Z,73.62
2019-02-11T09:53:29.135Z,72.23
2019-02-11T09:55:54.971Z,72.21
2019-02-11T09:58:20.789Z,70.72
2019-02-11T10:00:46.872Z,70.12
2019-02-11T10:03:12.815Z,69.73
2019-02-11T10:05:38.665Z,68.59
2019-02-11T10:08:04.483Z,68.00
2019-02-11T10:10:30.428Z,70.77
2019-02-11T10:12:56.366Z,69.91
2019-02-11T10:15:22.361Z,69.49
2019-02-11T10:17:48.196Z,68.45
2019-02-11T10:20:14.724Z,70.11
2019-02-11T10:22:41.013Z,71.55
2019-02-11T10:25:13.132Z,72.30
2019-02-11T10:27:38.989Z,71.73
2019-02-11T10:30:08.629Z,71.34
2019-02-11T10:32:34.497Z,68.93
2019-02-11T10:35:00.363Z,66.67
2019-02-11T10:37:26.223Z,66.82
2019-02-11T10:39:52.032Z,65.83
2019-02-11T10:42:17.895Z,66.69
2019-02-11T10:44:43.830Z,66.20
2019-02-11T10:47:09.975Z,63.91
2019-02-11T10:49:35.833Z,63.12
2019-02-11T10:52:01.725Z,63.33
2019-02-11T10:54:27.754Z,63.24
2019-02-11T10:56:53.615Z,63.02
2019-02-11T10:59:19.484Z,60.76
2019-02-11T11:01:45.344Z,58.64
2019-02-11T11:04:11.384Z,59.47
2019-02-11T11:06:37.211Z,60.34
2019-02-11T11:09:06.382Z,60.43
2019-02-11T11:11:32.206Z,61.07
2019-02-11T11:13:58.068Z,62.36
2019-02-11T11:16:29.382Z,63.59
2019-02-11T11:18:51.671Z,63.79
2019-02-11T11:21:18.412Z,64.02
2019-02-11T11:23:44.259Z,65.60
2019-02-11T11:26:10.101Z,64.36
2019-02-11T11:28:37.449Z,65.01
2019-02-11T11:31:03.412Z,65.06
2019-02-11T11:33:29.240Z,65.73
2019-02-11T11:35:55.079Z,66.10
2019-02-11T11:38:21.455Z,67.23
2019-02-11T11:40:47.376Z,67.35
2019-02-11T11:43:13.344Z,67.48
2019-02-11T11:45:39.179Z,66.51
2019-02-11T11:48:04.991Z,66.61
2019-02-11T11:50:30.854Z,66.81
2019-02-11T11:52:56.703Z,66.94
2019-02-11T11:55:22.977Z,67.98
2019-02-11T11:57:48.912Z,68.28
2019-02-11T12:00:19.190Z,68.19
2019-02-11T12:03:00.370Z,69.96
2019-02-11T12:05:14.474Z,71.86
2019-02-11T12:07:40.414Z,71.60
2019-02-11T12:10:07.922Z,72.64
2019-02-11T12:12:33.739Z,72.68
2019-02-11T12:14:59.606Z,73.34
2019-02-11T12:17:25.477Z,74.33
2019-02-11T12:19:51.332Z,76.23
2019-02-11T12:22:17.149Z,76.64
2019-02-11T12:24:43.292Z,78.29
2019-02-11T12:27:09.207Z,78.79
2019-02-11T12:29:35.243Z,79.14
2019-02-11T12:32:01.193Z,79.84
2019-02-11T12:34:27.006Z,80.61
2019-02-11T12:36:52.848Z,80.94
2019-02-11T12:39:18.677Z,81.05
2019-02-11T12:41:44.539Z,81.40
2019-02-11T12:44:10.354Z,81.91
2019-02-11T12:46:36.225Z,82.40
2019-02-11T12:49:02.051Z,81.36
2019-02-11T12:51:27.936Z,81.22
2019-02-11T12:53:53.811Z,80.12
2019-02-11T12:56:19.629Z,79.91
2019-02-11T12:58:45.496Z,78.49
2019-02-11T13:01:11.478Z,78.43
2019-02-11T13:03:38.070Z,77.16
2019-02-11T13:06:04.482Z,76.88
2019-02-11T13:08:30.337Z,77.62
2019-02-11T13:10:56.191Z,78.79
2019-02-11T13:13:22.048Z,78.60
2019-02-11T13:16:01.575Z,77.46
2019-02-11T13:18:16.057Z,74.76
2019-02-11T13:20:42.036Z,70.44
2019-02-11T13:23:07.979Z,71.56
2019-02-11T13:25:33.828Z,71.49
2019-02-11T13:27:59.735Z,72.24
2019-02-11T13:30:25.681Z,73.00
2019-02-11T13:32:51.635Z,72.60
2019-02-11T13:35:17.605Z,73.21
2019-02-11T13:37:43.903Z,74.15
2019-02-11T13:40:10.231Z,74.42
2019-02-11T13:42:36.217Z,75.55
2019-02-11T13:45:05.854Z,74.93
2019-02-11T13:47:31.811Z,74.30
2019-02-11T13:49:57.710Z,74.11
2019-02-11T13:52:23.640Z,73.09
2019-02-11T13:54:49.617Z,72.39
2019-02-11T13:57:15.544Z,71.81
2019-02-11T13:59:41.435Z,71.45
2019-02-11T14:02:07.656Z,72.17
2019-02-11T14:04:33.736Z,70.99
2019-02-11T14:06:59.708Z,71.30
2019-02-11T14:09:27.710Z,71.83
2019-02-11T14:11:53.553Z,72.57
2019-02-11T14:14:23.244Z,73.89
2019-02-11T14:16:49.086Z,74.65
2019-02-11T14:19:14.950Z,74.03
2019-02-11T14:21:40.785Z,73.60
2019-02-11T14:24:06.700Z,73.65
2019-02-11T14:26:32.570Z,72.41
2019-02-11T14:28:58.526Z,70.65
2019-02-11T14:31:24.367Z,68.47
2019-02-11T14:33:50.333Z,66.24
2019-02-11T14:36:16.289Z,62.37
2019-02-11T14:38:42.273Z,55.28
2019-02-11T14:41:08.165Z,54.59
2019-02-11T14:43:33.983Z,59.46
2019-02-11T14:45:59.955Z,62.13
2019-02-11T14:48:28.638Z,62.19
2019-02-11T14:50:55.481Z,47.47
2019-02-11T14:53:21.332Z,33.85
2019-02-11T14:55:47.618Z,31.47
2019-02-11T14:58:13.459Z,26.16
2019-02-11T15:00:39.332Z,32.90
2019-02-11T15:03:05.160Z,38.93
2019-02-11T15:05:30.997Z,42.58
2019-02-11T15:07:56.875Z,47.01
2019-02-11T15:10:22.721Z,50.21
2019-02-11T15:12:48.650Z,52.44
2019-02-11T15:15:14.581Z,55.55
2019-02-11T15:17:43.069Z,52.13
2019-02-11T15:20:11.197Z,43.54
2019-02-11T15:22:37.065Z,35.82
2019-02-11T15:25:06.315Z,38.66
2019-02-11T15:27:32.252Z,44.85
2019-02-11T15:29:58.098Z,50.05
2019-02-11T15:32:23.976Z,54.42
2019-02-11T15:34:49.812Z,57.96
2019-02-11T15:37:15.684Z,60.66
2019-02-11T15:39:41.540Z,64.04
2019-02-11T15:42:07.534Z,64.70
2019-02-11T15:44:33.529Z,65.37
2019-02-11T15:46:59.376Z,66.60
2019-02-11T15:49:25.229Z,67.60
2019-02-11T15:51:51.124Z,67.76
2019-02-11T15:54:17.021Z,68.07
2019-02-11T15:56:42.868Z,68.41
2019-02-11T15:59:09.290Z,68.72
2019-02-11T16:01:35.281Z,69.18
2019-02-11T16:04:01.172Z,69.39
2019-02-11T16:06:27.062Z,70.02
2019-02-11T16:08:52.949Z,70.62
2019-02-11T16:11:18.804Z,70.12
2019-02-11T16:13:44.803Z,70.43
2019-02-11T16:16:10.801Z,70.69
2019-02-11T16:18:36.642Z,71.96
2019-02-11T16:21:02.929Z,73.59
2019-02-11T16:23:28.797Z,74.68
2019-02-11T16:25:55.044Z,75.48
2019-02-11T16:28:21.001Z,76.38
2019-02-11T16:30:46.961Z,77.30
2019-02-11T16:33:12.791Z,77.90
2019-02-11T16:35:38.755Z,78.19
2019-02-11T16:38:06.496Z,78.63
2019-02-11T16:40:32.834Z,77.12
2019-02-11T16:42:58.667Z,72.93
2019-02-11T16:45:24.645Z,73.27
2019-02-11T16:47:50.496Z,73.56
2019-02-11T16:50:16.437Z,72.46
2019-02-11T16:52:42.336Z,72.82
2019-02-11T16:55:09.502Z,72.22
2019-02-11T16:57:35.404Z,72.05
2019-02-11T17:00:01.796Z,70.34
2019-02-11T17:02:27.760Z,69.62
2019-02-11T17:04:53.698Z,68.54
2019-02-11T17:07:19.546Z,68.38
2019-02-11T17:09:45.383Z,69.69
2019-02-11T17:12:11.618Z,69.84
2019-02-11T17:14:37.577Z,69.15
2019-02-11T17:17:03.577Z,68.87
2019-02-11T17:19:29.418Z,68.84
2019-02-11T17:21:55.424Z,69.00
2019-02-11T17:24:21.357Z,68.92
2019-02-11T17:26:48.202Z,69.49
2019-02-11T17:29:14.090Z,69.00
2019-02-11T17:31:40.074Z,68.53
2019-02-11T17:34:05.936Z,67.91
2019-02-11T17:36:31.825Z,68.15
2019-02-11T17:38:57.704Z,68.48
2019-02-11T17:41:23.649Z,68.61
2019-02-11T17:43:49.653Z,69.34
2019-02-11T17:46:15.623Z,70.17
2019-02-11T17:48:41.436Z,70.45
2019-02-11T17:51:07.381Z,70.89
2019-02-11T17:53:33.406Z,71.22
2019-02-11T17:55:59.289Z,70.90
2019-02-11T17:58:25.259Z,70.64
2019-02-11T18:00:53.156Z,71.22
2019-02-11T18:03:19.031Z,70.23
2019-02-11T18:05:45.001Z,70.04
2019-02-11T18:08:11.101Z,69.65
2019-02-11T18:10:37.057Z,69.63
2019-02-11T18:13:03.072Z,70.16
2019-02-11T18:15:29.057Z,70.56
2019-02-11T18:17:55.122Z,70.82
2019-02-11T18:20:21.124Z,71.10
2019-02-11T18:22:47.043Z,72.24
2019-02-11T18:25:13.016Z,73.39
2019-02-11T18:27:38.951Z,74.06
2019-02-11T18:30:09.124Z,75.08
2019-02-11T18:32:35.187Z,76.06
2019-02-11T18:35:01.679Z,76.85
2019-02-11T18:37:27.545Z,76.85
2019-02-11T18:39:53.504Z,76.80
2019-02-11T18:42:19.364Z,77.23
2019-02-11T18:44:45.542Z,77.42
2019-02-11T18:47:11.392Z,77.83
2019-02-11T18:49:37.346Z,78.06
2019-02-11T18:52:03.324Z,77.92
2019-02-11T18:54:29.230Z,78.31
2019-02-11T18:56:55.092Z,79.08
2019-02-11T18:59:24.739Z,79.40
2019-02-11T19:01:49.283Z,79.46
2019-02-11T19:04:15.763Z,79.53
2019-02-11T19:06:41.849Z,78.87
2019-02-11T19:09:09.736Z,78.99
2019-02-11T19:11:35.635Z,78.41
2019-02-11T19:14:01.585Z,78.35
2019-02-11T19:16:27.736Z,78.47
2019-02-11T19:18:53.785Z,78.94
2019-02-11T19:21:19.768Z,79.14
2019-02-11T19:23:45.602Z,79.57
2019-02-11T19:26:11.593Z,80.31
2019-02-11T19:28:37.453Z,81.10
2019-02-11T19:31:04.140Z,81.86
2019-02-11T19:33:29.992Z,81.95
2019-02-11T19:35:56.006Z,83.09
2019-02-11T19:38:21.880Z,83.20
2019-02-11T19:40:47.714Z,83.67
2019-02-11T19:43:14.075Z,84.19
2019-02-11T19:45:40.069Z,84.52
2019-02-11T19:48:06.020Z,84.86
2019-02-11T19:50:31.853Z,85.10
2019-02-11T19:52:57.883Z,85.28
2019-02-11T19:55:23.848Z,85.60
2019-02-11T19:57:49.745Z,85.84
2019-02-11T20:00:20.980Z,86.17
2019-02-11T20:02:47.882Z,86.37
2019-02-11T20:05:13.963Z,86.72
2019-02-11T20:07:40.040Z,86.94
2019-02-11T20:10:09.721Z,87.13
2019-02-11T20:12:35.732Z,87.30
2019-02-11T20:15:03.213Z,87.30
2019-02-11T20:17:29.257Z,87.39
2019-02-11T20:20:00.356Z,87.65
2019-02-11T20:22:23.086Z,87.87
2019-02-11T20:24:49.182Z,88.00
2019-02-11T20:27:15.052Z,88.34
2019-02-11T20:29:41.040Z,88.64
2019-02-11T20:32:06.868Z,88.80
2019-02-11T20:34:32.877Z,89.00
2019-02-11T20:36:59.216Z,89.09
2019-02-11T20:39:25.214Z,89.19
2019-02-11T20:41:51.163Z,89.34
2019-02-11T20:44:17.023Z,89.59
2019-02-11T20:46:42.986Z,89.58
2019-02-11T20:49:09.052Z,89.86
2019-02-11T20:51:34.998Z,90.19
2019-02-11T20:54:01.099Z,90.58
2019-02-11T20:56:27.494Z,90.68
2019-02-11T20:58:55.980Z,90.72
2019-02-11T21:01:23.834Z,90.65
2019-02-11T21:03:49.801Z,90.51
2019-02-11T21:06:15.751Z,90.17
2019-02-11T21:08:41.602Z,89.32
2019-02-11T21:11:07.489Z,88.70
2019-02-11T21:13:33.546Z,88.49
2019-02-11T21:15:59.524Z,88.31
2019-02-11T21:18:25.452Z,88.27
2019-02-11T21:20:51.402Z,88.48
2019-02-11T21:23:17.360Z,88.65
2019-02-11T21:25:43.553Z,88.88
2019-02-11T21:28:09.405Z,89.03
2019-02-11T21:30:35.647Z,89.35
2019-02-11T21:33:01.519Z,89.54
2019-02-11T21:35:27.404Z,89.82
2019-02-11T21:37:53.370Z,90.06
2019-02-11T21:40:22.526Z,90.11
2019-02-11T21:42:48.386Z,90.19
2019-02-11T21:45:14.572Z,90.29
2019-02-11T21:47:40.505Z,90.44
2019-02-11T21:50:15.104Z,90.41
2019-02-11T21:52:40.951Z,90.43
2019-02-11T21:55:12.784Z,90.74
2019-02-11T21:57:38.821Z,90.81
2019-02-11T22:00:14.234Z,91.14
2019-02-11T22:02:40.095Z,91.28
2019-02-11T22:05:07.050Z,91.29
2019-02-11T22:07:32.863Z,91.44
2019-02-11T22:09:58.716Z,91.75
2019-02-11T22:12:24.552Z,92.00
2019-02-11T22:14:50.395Z,92.08
2019-02-11T22:17:16.713Z,92.05
2019-02-11T22:19:42.538Z,91.94
2019-02-11T22:22:08.402Z,91.95
2019-02-11T22:24:36.325Z,91.85
2019-02-11T22:27:02.164Z,91.70
2019-02-11T22:29:28.015Z,91.57
2019-02-11T22:31:53.866Z,91.61
2019-02-11T22:34:19.872Z,91.57
2019-02-11T22:36:45.721Z,91.41
2019-02-11T22:39:11.623Z,91.37
2019-02-11T22:41:37.465Z,91.46
2019-02-11T22:44:03.357Z,91.53
2019-02-11T22:46:29.245Z,91.53
2019-02-11T22:48:55.122Z,91.39
2019-02-11T22:51:21.063Z,91.16
2019-02-11T22:53:46.916Z,90.91
2019-02-11T22:56:12.740Z,90.63
2019-02-11T22:58:38.696Z,90.45
2019-02-11T23:01:06.243Z,90.44
2019-02-11T23:03:32.780Z,90.51
2019-02-11T23:06:01.484Z,90.63
2019-02-11T23:08:27.438Z,90.74
2019-02-11T23:10:53.261Z,90.87
2019-02-11T23:13:19.180Z,90.89
2019-02-11T23:15:45.158Z,90.64
2019-02-11T23:18:10.987Z,90.28
2019-02-11T23:20:36.867Z,90.09
2019-02-11T23:23:02.832Z,90.01
2019-02-11T23:25:28.772Z,89.94
2019-02-11T23:27:54.592Z,89.95
2019-02-11T23:30:20.509Z,89.70
2019-02-11T23:32:46.607Z,89.33
2019-02-11T23:35:12.453Z,89.42
2019-02-11T23:37:38.282Z,89.59
2019-02-11T23:40:06.952Z,89.65
2019-02-11T23:42:32.808Z,89.65
2019-02-11T23:44:58.658Z,89.91
2019-02-11T23:47:24.492Z,90.01
2019-02-11T23:49:50.910Z,89.96
2019-02-11T23:52:16.734Z,89.87
2019-02-11T23:54:42.573Z,89.54
2019-02-11T23:57:08.412Z,89.21
2019-02-11T23:59:34.250Z,88.88
